createdAt,value
2022-09-25T00:01:11.044Z,4.50
2022-09-25T00:03:39.251Z,3.88
2022-09-25T00:06:15.040Z,6.40
2022-09-25T00:08:43.297Z,4.32
2022-09-25T00:11:18.345Z,4.60
2022-09-25T00:13:50.034Z,4.20
2022-09-25T00:16:20.752Z,4.68
2022-09-25T00:19:07.547Z,4.25
2022-09-25T00:21:35.853Z,5.00
2022-09-25T00:24:06.467Z,7.00
2022-09-25T00:26:37.421Z,5.22
2022-09-25T00:29:06.374Z,7.68
2022-09-25T00:31:34.380Z,8.40
2022-09-25T00:34:03.921Z,7.22
2022-09-25T00:36:32.860Z,5.57
2022-09-25T00:39:00.826Z,5.10
2022-09-25T00:41:32.077Z,4.57
2022-09-25T00:44:02.460Z,4.15
2022-09-25T00:46:38.496Z,5.68
2022-09-25T00:49:16.733Z,3.97
2022-09-25T00:51:54.627Z,4.57
2022-09-25T00:54:37.057Z,4.80
2022-09-25T00:57:10.820Z,6.38
2022-09-25T00:59:41.637Z,4.97
2022-09-25T01:02:14.440Z,5.57
2022-09-25T01:04:46.262Z,4.72
2022-09-25T01:07:15.085Z,5.53
2022-09-25T01:09:42.479Z,4.97
2022-09-25T01:12:09.917Z,4.47
2022-09-25T01:14:39.521Z,4.47
2022-09-25T01:17:23.240Z,5.57
2022-09-25T01:20:39.780Z,4.35
2022-09-25T01:23:44.081Z,4.45
2022-09-25T01:26:15.595Z,4.55
2022-09-25T01:29:14.759Z,9.55
2022-09-25T01:31:54.191Z,7.40
2022-09-25T01:34:32.483Z,8.20
2022-09-25T01:37:13.803Z,6.72
2022-09-25T01:39:47.264Z,4.38
2022-09-25T01:42:23.139Z,4.65
2022-09-25T01:44:57.971Z,6.95
2022-09-25T01:47:28.994Z,7.65
2022-09-25T01:50:00.541Z,5.15
2022-09-25T01:52:40.878Z,6.85
2022-09-25T01:55:24.059Z,4.53
2022-09-25T01:58:05.736Z,4.68
2022-09-25T02:00:38.064Z,5.05
2022-09-25T02:03:18.366Z,6.50
2022-09-25T02:05:57.552Z,4.25
2022-09-25T02:08:34.223Z,6.57
2022-09-25T02:11:04.717Z,4.80
2022-09-25T02:13:50.657Z,4.68
2022-09-25T02:16:23.221Z,13.25
2022-09-25T02:19:20.577Z,4.10
2022-09-25T02:22:07.373Z,5.43
2022-09-25T02:24:45.558Z,4.50
2022-09-25T02:27:15.562Z,4.75
2022-09-25T02:29:43.351Z,4.63
2022-09-25T02:32:13.652Z,4.78
2022-09-25T02:34:41.877Z,4.05
2022-09-25T02:37:14.495Z,4.65
2022-09-25T02:39:44.986Z,4.63
2022-09-25T02:42:29.031Z,4.88
2022-09-25T02:45:02.500Z,4.90
2022-09-25T02:47:43.588Z,4.38
2022-09-25T02:50:26.734Z,5.03
2022-09-25T02:53:15.280Z,5.30
2022-09-25T02:56:04.685Z,4.47
2022-09-25T02:58:40.988Z,5.05
2022-09-25T03:01:12.680Z,5.03
2022-09-25T03:03:41.460Z,4.20
2022-09-25T03:06:10.546Z,4.80
2022-09-25T03:08:42.518Z,4.32
2022-09-25T03:11:16.253Z,5.05
2022-09-25T03:13:44.807Z,4.53
2022-09-25T03:16:31.480Z,4.65
2022-09-25T03:19:02.226Z,4.03
2022-09-25T03:21:29.940Z,4.82
2022-09-25T03:23:57.198Z,6.22
2022-09-25T03:26:25.476Z,4.43
2022-09-25T03:28:53.645Z,4.68
2022-09-25T03:31:21.794Z,4.85
2022-09-25T03:33:49.393Z,5.72
2022-09-25T03:36:20.830Z,4.13
2022-09-25T03:38:57.958Z,4.15
2022-09-25T03:41:28.142Z,5.18
2022-09-25T03:43:56.759Z,4.80
2022-09-25T03:46:29.684Z,4.95
2022-09-25T03:48:57.263Z,4.22
2022-09-25T03:51:25.804Z,5.55
2022-09-25T03:53:53.829Z,4.43
2022-09-25T03:56:24.472Z,4.13
2022-09-25T03:58:56.474Z,5.57
2022-09-25T04:01:25.032Z,4.78
2022-09-25T04:03:53.417Z,4.75
2022-09-25T04:06:24.502Z,5.93
2022-09-25T04:08:53.836Z,4.25
2022-09-25T04:11:25.075Z,5.47
2022-09-25T04:13:53.044Z,7.05
2022-09-25T04:16:23.991Z,4.15
2022-09-25T04:18:51.810Z,3.75
2022-09-25T04:21:19.269Z,4.40
2022-09-25T04:24:07.476Z,5.70
2022-09-25T04:26:35.834Z,11.77
2022-09-25T04:29:04.474Z,4.63
2022-09-25T04:31:32.689Z,6.45
2022-09-25T04:34:00.473Z,4.38
2022-09-25T04:36:27.967Z,4.50
2022-09-25T04:38:56.719Z,3.97
2022-09-25T04:41:24.783Z,5.13
2022-09-25T04:43:52.311Z,13.38
2022-09-25T04:46:22.596Z,5.05
2022-09-25T04:48:50.896Z,5.32
2022-09-25T04:51:19.421Z,4.60
2022-09-25T04:53:47.559Z,5.03
2022-09-25T04:56:16.634Z,6.97
2022-09-25T04:58:46.567Z,4.25
2022-09-25T05:01:14.083Z,5.95
2022-09-25T05:03:41.760Z,5.15
2022-09-25T05:06:09.895Z,5.60
2022-09-25T05:08:37.520Z,5.28
2022-09-25T05:11:05.088Z,4.85
2022-09-25T05:13:32.366Z,12.45
2022-09-25T05:15:59.906Z,10.23
2022-09-25T05:18:27.859Z,7.85
2022-09-25T05:20:55.411Z,8.45
2022-09-25T05:23:24.880Z,5.03
2022-09-25T05:26:02.671Z,4.63
2022-09-25T05:28:34.490Z,5.13
2022-09-25T05:31:04.018Z,6.95
2022-09-25T05:33:33.463Z,8.32
2022-09-25T05:36:02.586Z,8.77
2022-09-25T05:38:32.871Z,15.85
2022-09-25T05:41:05.199Z,16.13
2022-09-25T05:43:34.177Z,16.40
2022-09-25T05:46:01.921Z,12.43
2022-09-25T05:48:29.250Z,11.85
2022-09-25T05:50:57.651Z,7.57
2022-09-25T05:53:25.350Z,18.27
2022-09-25T05:56:00.374Z,9.73
2022-09-25T05:58:29.482Z,14.13
2022-09-25T06:01:00.928Z,9.93
2022-09-25T06:06:01.722Z,7.78
2022-09-25T06:08:32.891Z,6.60
2022-09-25T06:11:03.687Z,6.40
2022-09-25T06:13:33.240Z,7.20
2022-09-25T06:16:01.200Z,8.13
2022-09-25T06:18:28.517Z,8.40
2022-09-25T06:21:04.726Z,8.07
2022-09-25T06:23:32.483Z,5.90
2022-09-25T06:26:04.271Z,7.00
2022-09-25T06:28:32.609Z,7.28
2022-09-25T06:31:01.782Z,9.00
2022-09-25T06:33:29.327Z,6.40
2022-09-25T06:35:56.535Z,11.02
2022-09-25T06:38:24.421Z,9.98
2022-09-25T06:40:51.681Z,5.95
2022-09-25T06:43:18.990Z,10.88
2022-09-25T06:45:47.945Z,6.65
2022-09-25T06:48:18.150Z,5.90
2022-09-25T06:50:52.888Z,16.73
2022-09-25T06:53:21.730Z,9.43
2022-09-25T06:55:49.730Z,10.50
2022-09-25T06:58:20.628Z,8.73
2022-09-25T07:00:52.187Z,10.82
2022-09-25T07:06:07.531Z,4.70
2022-09-25T07:08:35.038Z,8.13
2022-09-25T07:11:02.414Z,4.05
2022-09-25T07:13:32.163Z,5.70
2022-09-25T07:16:08.560Z,17.35
2022-09-25T07:18:35.828Z,10.63
2022-09-25T07:21:05.976Z,6.35
2022-09-25T07:23:33.959Z,5.75
2022-09-25T07:26:13.845Z,19.70
2022-09-25T07:28:42.555Z,6.28
2022-09-25T07:31:21.704Z,36.40
2022-09-25T07:33:49.498Z,4.07
2022-09-25T07:36:17.970Z,36.70
2022-09-25T07:38:50.014Z,4.82
2022-09-25T07:41:18.590Z,20.27
2022-09-25T07:44:18.104Z,17.80
2022-09-25T07:46:46.894Z,3.50
2022-09-25T07:49:14.356Z,4.60
2022-09-25T07:51:41.697Z,4.28
2022-09-25T07:54:09.176Z,14.93
2022-09-25T07:56:38.468Z,5.15
2022-09-25T07:59:06.020Z,6.18
2022-09-25T08:01:33.332Z,19.58
2022-09-25T08:04:01.803Z,3.10
2022-09-25T08:06:29.133Z,5.60
2022-09-25T08:08:56.514Z,6.63
2022-09-25T08:11:23.958Z,24.75
2022-09-25T08:13:51.450Z,9.07
2022-09-25T08:16:20.877Z,5.45
2022-09-25T08:18:49.697Z,6.43
2022-09-25T08:21:21.177Z,4.05
2022-09-25T08:23:53.778Z,8.43
2022-09-25T08:26:22.203Z,7.35
2022-09-25T08:28:52.187Z,3.65
2022-09-25T08:31:20.115Z,3.45
2022-09-25T08:34:40.445Z,2.03
2022-09-25T08:37:10.266Z,4.07
2022-09-25T08:39:37.703Z,12.60
2022-09-25T08:42:05.310Z,2.67
2022-09-25T08:45:19.455Z,5.45
2022-09-25T08:48:00.275Z,11.98
2022-09-25T08:50:29.901Z,3.85
2022-09-25T08:53:11.387Z,10.18
2022-09-25T08:56:00.649Z,3.63
2022-09-25T08:58:32.538Z,4.57
2022-09-25T09:01:07.535Z,7.70
2022-09-25T09:03:50.917Z,7.35
2022-09-25T09:06:19.038Z,5.15
2022-09-25T09:08:55.355Z,4.05
2022-09-25T09:11:31.072Z,2.45
2022-09-25T09:14:16.094Z,5.10
2022-09-25T09:17:00.954Z,8.75
2022-09-25T09:19:29.069Z,6.25
2022-09-25T09:22:26.978Z,12.40
2022-09-25T09:25:14.774Z,4.53
2022-09-25T09:28:16.437Z,1.60
2022-09-25T09:30:46.355Z,8.82
2022-09-25T09:33:51.336Z,1.70
2022-09-25T09:36:43.058Z,6.00
2022-09-25T09:42:22.008Z,2.20
2022-09-25T09:44:58.771Z,3.92
2022-09-25T09:48:02.440Z,2.95
2022-09-25T09:50:43.360Z,10.57
2022-09-25T09:53:44.242Z,3.60
2022-09-25T09:56:26.018Z,1.77
2022-09-25T09:58:57.292Z,1.42
2022-09-25T10:01:40.932Z,1.30
2022-09-25T10:04:18.291Z,1.30
2022-09-25T10:06:54.001Z,2.42
2022-09-25T10:09:21.118Z,2.15
2022-09-25T10:11:54.203Z,5.70
2022-09-25T10:14:25.093Z,3.38
2022-09-25T10:16:53.984Z,1.60
2022-09-25T10:19:25.261Z,7.38
2022-09-25T10:22:03.419Z,10.50
2022-09-25T10:24:51.444Z,1.70
2022-09-25T10:27:28.534Z,7.03
2022-09-25T10:30:11.260Z,3.50
2022-09-25T10:33:01.912Z,1.40
2022-09-25T10:35:42.318Z,1.40
2022-09-25T10:38:48.338Z,3.42
2022-09-25T10:41:25.779Z,1.73
2022-09-25T10:44:03.222Z,1.15
2022-09-25T10:46:54.425Z,19.35
2022-09-25T10:49:42.837Z,1.27
2022-09-25T10:52:12.220Z,1.40
2022-09-25T10:54:44.762Z,3.03
2022-09-25T10:57:34.401Z,3.50
2022-09-25T11:00:04.115Z,1.17
2022-09-25T11:02:45.789Z,1.10
2022-09-25T11:05:36.023Z,1.92
2022-09-25T11:08:06.657Z,1.40
2022-09-25T11:12:18.754Z,1.48
2022-09-25T11:14:59.160Z,3.28
2022-09-25T11:17:43.346Z,1.92
2022-09-25T11:20:16.733Z,1.83
2022-09-25T11:22:57.223Z,3.63
2022-09-25T11:25:49.556Z,8.80
2022-09-25T11:28:25.364Z,1.15
2022-09-25T11:31:02.975Z,3.17
2022-09-25T11:33:43.251Z,5.30
2022-09-25T11:36:26.203Z,4.35
2022-09-25T11:39:30.313Z,2.03
2022-09-25T11:42:05.469Z,0.80
2022-09-25T11:45:08.327Z,1.92
2022-09-25T11:47:43.512Z,2.90
2022-09-25T11:50:16.471Z,2.28
2022-09-25T11:53:07.217Z,1.70
2022-09-25T11:55:52.677Z,1.20
2022-09-25T11:58:38.545Z,2.30
2022-09-25T12:01:27.201Z,8.88
2022-09-25T12:04:41.720Z,2.60
2022-09-25T12:07:30.431Z,1.85
2022-09-25T12:10:15.061Z,1.42
2022-09-25T12:12:59.229Z,4.72
2022-09-25T12:15:47.097Z,1.42
2022-09-25T12:18:24.190Z,1.75
2022-09-25T12:21:15.261Z,1.20
2022-09-25T12:23:52.468Z,4.40
2022-09-25T12:26:24.331Z,1.10
2022-09-25T12:28:57.481Z,1.67
2022-09-25T12:31:58.727Z,1.10
2022-09-25T12:34:28.859Z,1.45
2022-09-25T12:37:15.277Z,1.73
2022-09-25T12:39:52.389Z,2.42
2022-09-25T12:42:27.436Z,1.20
2022-09-25T12:45:13.313Z,2.15
2022-09-25T12:47:55.759Z,1.95
2022-09-25T12:50:30.661Z,1.50
2022-09-25T12:53:32.720Z,1.33
2022-09-25T12:56:13.400Z,1.40
2022-09-25T12:58:59.482Z,5.13
2022-09-25T13:01:47.599Z,1.48
2022-09-25T13:04:40.499Z,0.95
2022-09-25T13:07:38.420Z,2.60
2022-09-25T13:10:32.749Z,1.30
2022-09-25T13:13:08.143Z,3.47
2022-09-25T13:15:40.469Z,1.20
2022-09-25T13:18:16.841Z,4.70
2022-09-25T13:21:37.146Z,1.73
2022-09-25T13:24:09.479Z,3.33
2022-09-25T13:26:53.784Z,4.70
2022-09-25T13:29:28.865Z,5.72
2022-09-25T13:32:07.182Z,5.53
2022-09-25T13:34:38.939Z,2.38
2022-09-25T13:37:09.721Z,2.60
2022-09-25T13:40:05.068Z,2.65
2022-09-25T13:42:42.198Z,3.22
2022-09-25T13:45:32.789Z,1.15
2022-09-25T13:48:10.495Z,3.22
2022-09-25T13:50:39.866Z,5.97
2022-09-25T13:53:20.730Z,3.47
2022-09-25T13:55:50.667Z,1.10
2022-09-25T13:58:19.972Z,1.80
2022-09-25T14:00:50.436Z,1.48
2022-09-25T14:03:37.244Z,2.10
2022-09-25T14:06:05.446Z,2.75
2022-09-25T14:08:34.684Z,1.80
2022-09-25T14:11:07.736Z,0.90
2022-09-25T14:13:35.609Z,2.75
2022-09-25T14:16:09.238Z,1.30
2022-09-25T14:18:40.994Z,1.92
2022-09-25T14:21:10.058Z,3.20
2022-09-25T14:23:52.498Z,3.63
2022-09-25T14:26:28.203Z,1.42
2022-09-25T14:29:00.199Z,1.60
2022-09-25T14:31:33.451Z,1.48
2022-09-25T14:34:26.299Z,2.22
2022-09-25T14:37:06.029Z,1.17
2022-09-25T14:39:52.089Z,3.00
2022-09-25T14:42:41.469Z,2.63
2022-09-25T14:45:42.653Z,17.50
2022-09-25T14:48:25.074Z,14.57
2022-09-25T14:50:56.113Z,5.65
2022-09-25T14:53:32.753Z,2.40
2022-09-25T14:56:03.102Z,4.97
2022-09-25T14:58:33.031Z,3.70
2022-09-25T15:01:23.503Z,1.25
2022-09-25T15:03:51.334Z,18.67
2022-09-25T15:06:34.209Z,2.50
2022-09-25T15:09:03.297Z,2.97
2022-09-25T15:11:43.338Z,7.68
2022-09-25T15:14:16.682Z,17.88
2022-09-25T15:17:02.918Z,16.02
2022-09-25T15:19:45.674Z,8.07
2022-09-25T15:22:19.596Z,4.80
2022-09-25T15:24:54.298Z,4.95
2022-09-25T15:27:23.419Z,7.10
2022-09-25T15:29:51.700Z,8.35
2022-09-25T15:32:25.651Z,7.45
2022-09-25T15:35:17.640Z,6.50
2022-09-25T15:37:45.823Z,3.63
2022-09-25T15:40:18.564Z,9.07
2022-09-25T15:42:47.974Z,4.65
2022-09-25T15:45:44.448Z,5.45
2022-09-25T15:48:36.270Z,4.55
2022-09-25T15:51:21.712Z,5.25
2022-09-25T15:53:54.886Z,9.32
2022-09-25T15:56:51.286Z,3.63
2022-09-25T15:59:20.217Z,2.03
2022-09-25T16:02:07.719Z,1.98
2022-09-25T16:04:54.456Z,2.10
2022-09-25T16:07:30.140Z,3.53
2022-09-25T16:10:17.855Z,3.80
2022-09-25T16:12:49.498Z,5.13
2022-09-25T16:15:30.136Z,2.10
2022-09-25T16:18:05.721Z,3.77
2022-09-25T16:20:37.989Z,2.22
2022-09-25T16:23:16.996Z,4.07
2022-09-25T16:25:45.225Z,5.22
2022-09-25T16:28:20.466Z,9.55
2022-09-25T16:30:50.420Z,7.68
2022-09-25T16:33:27.525Z,10.20
2022-09-25T16:36:13.110Z,4.70
2022-09-25T16:39:03.430Z,10.85
2022-09-25T16:41:31.057Z,5.18
2022-09-25T16:44:14.900Z,7.18
2022-09-25T16:47:03.715Z,3.05
2022-09-25T16:49:33.791Z,2.65
2022-09-25T16:52:04.512Z,7.55
2022-09-25T16:54:32.807Z,4.93
2022-09-25T16:57:02.548Z,5.75
2022-09-25T16:59:30.478Z,4.35
2022-09-25T17:02:02.441Z,10.38
2022-09-25T17:04:31.197Z,5.40
2022-09-25T17:06:58.670Z,19.05
2022-09-25T17:09:31.747Z,8.15
2022-09-25T17:12:05.335Z,9.30
2022-09-25T17:14:32.554Z,5.30
2022-09-25T17:17:00.053Z,13.07
2022-09-25T17:19:27.842Z,8.10
2022-09-25T17:21:56.218Z,9.20
2022-09-25T17:24:26.925Z,14.82
2022-09-25T17:26:55.129Z,10.75
2022-09-25T17:29:22.707Z,10.25
2022-09-25T17:31:50.739Z,9.70
2022-09-25T17:34:21.116Z,7.93
2022-09-25T17:36:48.201Z,8.40
2022-09-25T17:39:15.378Z,12.43
2022-09-25T17:41:43.136Z,11.02
2022-09-25T17:44:28.901Z,6.88
2022-09-25T17:46:56.661Z,5.72
2022-09-25T17:49:25.316Z,11.95
2022-09-25T17:51:52.942Z,12.52
2022-09-25T17:54:20.911Z,12.25
2022-09-25T17:56:48.644Z,10.13
2022-09-25T17:59:16.045Z,12.13
2022-09-25T18:01:43.316Z,10.57
2022-09-25T18:04:36.557Z,10.30
2022-09-25T18:07:04.008Z,11.38
2022-09-25T18:09:31.272Z,14.77
2022-09-25T18:11:58.592Z,11.25
2022-09-25T18:14:26.183Z,10.40
2022-09-25T18:16:53.484Z,6.13
2022-09-25T18:19:40.013Z,15.50
2022-09-25T18:22:20.809Z,15.85
2022-09-25T18:24:53.054Z,11.73
2022-09-25T18:27:20.681Z,10.10
2022-09-25T18:29:47.712Z,7.70
2022-09-25T18:32:15.909Z,15.00
2022-09-25T18:34:43.303Z,10.35
2022-09-25T18:37:11.255Z,7.03
2022-09-25T18:39:39.012Z,7.75
2022-09-25T18:42:06.476Z,9.57
2022-09-25T18:44:38.534Z,10.43
2022-09-25T18:47:08.935Z,7.45
2022-09-25T18:49:38.060Z,9.15
2022-09-25T18:52:06.439Z,7.80
2022-09-25T18:54:34.277Z,8.60
2022-09-25T18:57:01.357Z,6.70
2022-09-25T18:59:28.427Z,8.02
2022-09-25T19:01:56.011Z,17.13
2022-09-25T19:04:23.714Z,20.42
2022-09-25T19:06:50.962Z,18.30
2022-09-25T19:09:18.836Z,27.25
2022-09-25T19:11:46.255Z,28.27
2022-09-25T19:14:14.997Z,13.00
2022-09-25T19:16:42.880Z,14.85
2022-09-25T19:19:11.392Z,18.40
2022-09-25T19:21:41.678Z,21.33
2022-09-25T19:24:09.508Z,15.15
2022-09-25T19:26:37.413Z,15.98
2022-09-25T19:29:05.406Z,24.35
2022-09-25T19:31:32.720Z,41.47
2022-09-25T19:34:02.406Z,48.58
2022-09-25T19:36:32.383Z,54.17
2022-09-25T19:39:01.011Z,24.75
2022-09-25T19:41:34.134Z,22.80
2022-09-25T19:44:12.763Z,18.90
2022-09-25T19:46:46.488Z,20.13
2022-09-25T19:49:16.341Z,30.20
2022-09-25T19:51:44.470Z,20.52
2022-09-25T19:54:14.978Z,29.85
2022-09-25T19:56:42.561Z,30.43
2022-09-25T19:59:14.298Z,23.50
2022-09-25T20:01:43.141Z,24.52
2022-09-25T20:04:17.177Z,16.40
2022-09-25T20:06:49.472Z,12.55
2022-09-25T20:09:21.495Z,10.20
2022-09-25T20:11:50.806Z,7.35
2022-09-25T20:14:25.798Z,7.05
2022-09-25T20:16:54.114Z,7.60
2022-09-25T20:19:30.476Z,8.10
2022-09-25T20:22:20.111Z,14.30
2022-09-25T20:24:48.018Z,7.55
2022-09-25T20:27:17.555Z,8.60
2022-09-25T20:30:12.864Z,8.85
2022-09-25T20:33:12.058Z,8.73
2022-09-25T20:36:10.841Z,21.98
2022-09-25T20:38:38.030Z,12.13
2022-09-25T20:41:07.808Z,9.55
2022-09-25T20:43:35.631Z,7.85
2022-09-25T20:46:07.184Z,7.18
2022-09-25T20:48:36.613Z,9.85
2022-09-25T20:51:05.258Z,9.15
2022-09-25T20:53:32.815Z,9.65
2022-09-25T20:56:13.384Z,6.60
2022-09-25T20:58:41.918Z,6.90
2022-09-25T21:01:12.779Z,10.85
2022-09-25T21:03:42.013Z,8.90
2022-09-25T21:06:13.725Z,8.15
2022-09-25T21:08:41.281Z,7.25
2022-09-25T21:11:10.510Z,6.82
2022-09-25T21:13:39.863Z,11.52
2022-09-25T21:16:09.981Z,9.77
2022-09-25T21:18:38.013Z,8.13
2022-09-25T21:21:08.119Z,9.18
2022-09-25T21:23:35.389Z,7.55
2022-09-25T21:26:10.204Z,7.88
2022-09-25T21:28:39.061Z,11.18
2022-09-25T21:31:18.222Z,10.48
2022-09-25T21:33:45.714Z,7.55
2022-09-25T21:36:15.475Z,9.85
2022-09-25T21:38:42.740Z,12.10
2022-09-25T21:41:13.517Z,12.15
2022-09-25T21:43:41.278Z,7.53
2022-09-25T21:46:18.464Z,9.10
2022-09-25T21:49:00.463Z,7.60
2022-09-25T21:51:31.122Z,8.65
2022-09-25T21:53:59.295Z,8.25
2022-09-25T21:56:27.898Z,22.45
2022-09-25T21:58:56.532Z,10.52
2022-09-25T22:01:27.177Z,8.25
2022-09-25T22:03:57.257Z,7.82
2022-09-25T22:06:31.009Z,7.32
2022-09-25T22:09:01.916Z,9.35
2022-09-25T22:11:29.722Z,8.00
2022-09-25T22:13:58.730Z,10.75
2022-09-25T22:16:30.479Z,7.50
2022-09-25T22:19:10.499Z,7.88
2022-09-25T22:21:38.652Z,7.20
2022-09-25T22:24:06.124Z,7.88
2022-09-25T22:26:36.728Z,8.80
2022-09-25T22:29:04.763Z,7.72
2022-09-25T22:31:33.800Z,7.65
2022-09-25T22:34:04.619Z,8.02
2022-09-25T22:36:33.650Z,8.68
2022-09-25T22:39:00.599Z,6.68
2022-09-25T22:41:27.789Z,9.50
2022-09-25T22:43:55.473Z,7.78
2022-09-25T22:46:24.452Z,8.23
2022-09-25T22:48:52.118Z,10.40
2022-09-25T22:51:24.307Z,7.43
2022-09-25T22:53:52.375Z,7.50
2022-09-25T22:56:23.168Z,10.30
2022-09-25T22:58:53.151Z,7.53
2022-09-25T23:01:33.737Z,8.68
2022-09-25T23:04:03.670Z,7.33
2022-09-25T23:06:32.475Z,6.68
2022-09-25T23:09:03.440Z,6.78
2022-09-25T23:11:30.916Z,7.50
2022-09-25T23:14:03.384Z,6.90
2022-09-25T23:16:32.297Z,7.45
2022-09-25T23:19:00.391Z,8.15
2022-09-25T23:21:29.773Z,7.75
2022-09-25T23:23:58.559Z,6.47
2022-09-25T23:26:26.466Z,9.57
2022-09-25T23:28:54.126Z,7.50
2022-09-25T23:31:22.142Z,6.88
2022-09-25T23:33:49.424Z,10.68
2022-09-25T23:36:20.403Z,10.02
2022-09-25T23:38:49.479Z,7.95
2022-09-25T23:41:37.918Z,7.95
2022-09-25T23:44:08.122Z,7.22
2022-09-25T23:46:38.469Z,7.97
2022-09-25T23:49:06.273Z,6.93
2022-09-25T23:51:33.900Z,7.10
2022-09-25T23:54:02.093Z,8.00
2022-09-25T23:56:32.315Z,7.28
2022-09-25T23:59:03.602Z,7.32
